Aérodrome :







RETROUVEZ-NOUS SUR...

 
LOGIN :

S'inscrire | Disclaimer

   EN    FR    IT 

 









Légende :    VFR   VFR Marginal   IFR   IFR Intensif   IFR Très Intensif
Visi : 
Plafond : 
>= 8 km
>= 3000ft
5 à 8 km
1000 à 3000 ft
1500m à 5 km
500 à 1000 ft
800 à 1500m
200 à 500 ft
< 800m
< 200 ft
Symboles :   Orages  Brouillard  Fortes neiges  Fortes précipitations  Vent > 20 kt






- Altitude de l'aérodrome : 232 ft
- Code IATA : YQM


CYQM - Greater Moncton International

DERNIER METAR :
  • 032300Z 13007KT 15SM FEW045 FEW170 BKN240 20/10 A2995 RMK SC1AC2CI5 SC TR SLP143 DENSITY ALT 900FT

METARs EXPIRÉS :
  • 032200Z 14007KT 15SM FEW045 FEW170 BKN250 20/10 A2994 RMK SC1AC1CI6 SC TR SLP140 DENSITY ALT 900FT
  • 032100Z 04005KT 030V090 15SM FEW045 FEW170 BKN220 BKN250 21/09 A2994 RMK SC1AC1CI5CI2 SC TR AC TR CU ASOCTD SLP140 DENSITY ALT 1000FT

TAF TAF CYQM
Valide du 03 à 18h jusqu'au 04 à 18h UTC


031738Z 0318/0418 07007KT P6SM SCT020
TEMPO 0318/0321 BKN020
BECMG 0319/0321 12005KT
FM040600 18005KT P6SM SCT004
PROB30 0408/0412 3SM BR OVC004
FM041200 20008KT P6SM SCT030
FM041500 20010KT P6SM -SHRA BKN030 RMK NXT FCST BY 040000Z
FIR CZQM / Amérique du Nord



MET'MAP, la Météo Aéronautique d'un coup d'oeil ! - Copyright ORBIFLY Décembre 2007 - Disclaimer

ORBIFLY MET'MAP TEAM :

Programmation & Développement : Alexandra Zaïnal
Sur une idée originale de : Baudouin d'Aumeries
Assistance à la programmation : Marc-Olivier Méhu
Soutien technique & logistique : Manuel Goepfert

Contact : metmap@orbifly.com




SOURCES & CREDITS :

   NOAA